Adair, Iowa
Current Conditions -  °F | °C
As of 4:35 PM on Saturday 20 Dec 2014 (Local Time) from KADU Reporting Station
Haze Haze  
Wind Chill: 30°   Ceiling: Unl
Heat Index: 34°   Visibility: 5mi
Dew Point: 28°   Wind: 5mph
Humidity: 81%   Direction: 160°SSE
Pressure: 30.09"   Gusts: NA
Location:  41.5°N, 94.64°W
Report Text: KADU 202235Z AUTO 16004KT 5SM HZ SCT007 01/M02 A3009 RMK AO2
Loading
Personal Weather Stations






























Interactive Weather Map New forecast layout! Learn more

10-Day Weather Forecast

Advertisements
Track Severe Weather on mobile